Time,TemperatureF,DewpointF,PressureIn,WindDirection,WindDirectionDegrees,WindSpeedMPH,WindSpeedGustMPH,Humidity,HourlyPrecipIn,Conditions,Clouds,dailyrainin,SoftwareType,DateUTC
2013-03-27 02:03:00,51.6,39.0,30.25,NW,307,2.0,9.0,62,0.00,,,0.00,weatherlink.com 1.10,2013-03-27 06:03:00,
2013-03-27 02:08:00,51.6,38.0,30.25,NNW,327,1.0,4.0,61,0.00,,,0.00,weatherlink.com 1.10,2013-03-27 06:08:00,
2013-03-27 02:23:00,51.6,37.0,30.24,NW,319,1.0,6.0,59,0.00,,,0.00,weatherlink.com 1.10,2013-03-27 06:23:00,
2013-03-27 02:38:00,51.3,38.0,30.24,WNW,291,1.0,4.0,60,0.00,,,0.00,weatherlink.com 1.10,2013-03-27 06:38:00,
2013-03-27 02:53:00,51.1,37.0,30.23,ENE,63,1.0,3.0,60,0.00,,,0.00,weatherlink.com 1.10,2013-03-27 06:53:00,
2013-03-27 03:08:00,51.0,38.0,30.23,NW,316,1.0,4.0,61,0.00,,,0.00,weatherlink.com 1.10,2013-03-27 07:08:00,
2013-03-27 03:23:00,50.9,39.0,30.24,East,86,0.0,2.0,64,0.00,,,0.00,weatherlink.com 1.10,2013-03-27 07:23:00,
2013-03-27 03:38:00,50.0,39.0,30.23,ESE,113,1.0,1.0,65,0.00,,,0.00,weatherlink.com 1.10,2013-03-27 07:38:00,
2013-03-27 03:53:00,49.7,38.0,30.23,NNE,15,0.0,4.0,65,0.00,,,0.00,weatherlink.com 1.10,2013-03-27 07:53:00,
2013-03-27 04:08:00,49.7,38.0,30.23,NE,49,0.0,2.0,64,0.00,,,0.00,weatherlink.com 1.10,2013-03-27 08:08:00,
2013-03-27 04:23:00,49.3,38.0,30.23,SSE,158,1.0,1.0,65,0.00,,,0.00,weatherlink.com 1.10,2013-03-27 08:23:00,
2013-03-27 04:38:00,48.9,38.0,30.23,ENE,70,0.0,2.0,65,0.00,,,0.00,weatherlink.com 1.10,2013-03-27 08:38:00,
2013-03-27 04:53:00,48.9,38.0,30.24,ENE,75,1.0,2.0,66,0.00,,,0.00,weatherlink.com 1.10,2013-03-27 08:53:00,
2013-03-27 05:08:00,48.9,38.0,30.24,NE,46,1.0,2.0,65,0.00,,,0.00,weatherlink.com 1.10,2013-03-27 09:08:00,
2013-03-27 05:23:00,48.9,38.0,30.24,ENE,63,0.0,5.0,65,0.00,,,0.00,weatherlink.com 1.10,2013-03-27 09:23:00,
2013-03-27 05:38:00,48.5,37.0,30.25,ESE,105,0.0,3.0,64,0.00,,,0.00,weatherlink.com 1.10,2013-03-27 09:38:00,
2013-03-27 05:53:00,47.7,38.0,30.25,NNE,25,0.0,1.0,68,0.00,,,0.00,weatherlink.com 1.10,2013-03-27 09:53:00,
2013-03-27 06:08:00,46.7,38.0,30.25,East,84,0.0,1.0,71,0.00,,,0.00,weatherlink.com 1.10,2013-03-27 10:08:00,
2013-03-27 06:23:00,46.1,38.0,30.26,East,79,0.0,1.0,72,0.00,,,0.00,weatherlink.com 1.10,2013-03-27 10:23:00,
2013-03-27 06:38:00,45.7,37.0,30.25,ENE,68,0.0,1.0,73,0.00,,,0.00,weatherlink.com 1.10,2013-03-27 10:38:00,
2013-03-27 06:53:00,45.1,38.0,30.26,East,91,1.0,2.0,75,0.00,,,0.00,weatherlink.com 1.10,2013-03-27 10:53:00,
2013-03-27 07:08:00,45.5,38.0,30.27,East,96,0.0,2.0,75,0.00,,,0.00,weatherlink.com 1.10,2013-03-27 11:08:00,
2013-03-27 07:23:00,45.9,37.0,30.28,North,5,0.0,4.0,72,0.00,,,0.00,weatherlink.com 1.10,2013-03-27 11:23:00,
2013-03-27 07:38:00,46.1,37.0,30.29,ENE,59,0.0,2.0,71,0.00,,,0.00,weatherlink.com 1.10,2013-03-27 11:38:00,
2013-03-27 07:53:00,46.4,37.0,30.30,WNW,294,0.0,4.0,70,0.00,,,0.00,weatherlink.com 1.10,2013-03-27 11:53:00,
2013-03-27 08:08:00,46.9,38.0,30.30,ENE,57,0.0,4.0,70,0.00,,,0.00,weatherlink.com 1.10,2013-03-27 12:08:00,
2013-03-27 08:23:00,47.9,37.0,30.31,NE,54,1.0,3.0,67,0.00,,,0.00,weatherlink.com 1.10,2013-03-27 12:23:00,
2013-03-27 08:38:00,49.9,38.0,30.31,ENE,76,1.0,5.0,64,0.00,,,0.00,weatherlink.com 1.10,2013-03-27 12:38:00,
2013-03-27 08:53:00,50.4,36.0,30.32,NNE,20,4.0,5.0,59,0.00,,,0.00,weatherlink.com 1.10,2013-03-27 12:53:00,
2013-03-27 09:08:00,51.2,36.0,30.33,WSW,237,3.0,4.0,57,0.00,,,0.00,weatherlink.com 1.10,2013-03-27 13:08:00,
2013-03-27 09:24:00,52.0,37.0,30.33,North,354,5.0,5.0,58,0.00,,,0.00,weatherlink.com 1.10,2013-03-27 13:24:00,
2013-03-27 09:39:00,52.8,38.0,30.34,ESE,119,0.0,4.0,58,0.00,,,0.00,weatherlink.com 1.10,2013-03-27 13:39:00,
2013-03-27 09:54:00,52.6,38.0,30.34,NW,311,1.0,6.0,58,0.00,,,0.00,weatherlink.com 1.10,2013-03-27 13:54:00,
2013-03-27 10:09:00,53.0,38.0,30.34,NE,41,6.0,10.0,57,0.00,,,0.00,weatherlink.com 1.10,2013-03-27 14:09:00,
2013-03-27 10:24:00,54.6,38.0,30.34,WNW,282,1.0,3.0,54,0.00,,,0.00,weatherlink.com 1.10,2013-03-27 14:24:00,
2013-03-27 10:39:00,55.6,37.0,30.35,ENE,78,3.0,3.0,50,0.00,,,0.00,weatherlink.com 1.10,2013-03-27 14:39:00,
2013-03-27 10:54:00,55.7,38.0,30.35,NW,319,1.0,6.0,52,0.00,,,0.00,weatherlink.com 1.10,2013-03-27 14:54:00,
2013-03-27 11:09:00,55.8,38.0,30.35,NW,318,2.0,4.0,51,0.00,,,0.00,weatherlink.com 1.10,2013-03-27 15:09:00,
2013-03-27 11:24:00,55.0,35.0,30.35,NNW,333,1.0,5.0,47,0.00,,,0.00,weatherlink.com 1.10,2013-03-27 15:24:00,
2013-03-27 11:39:00,54.8,35.0,30.34,NNE,18,3.0,7.0,47,0.00,,,0.00,weatherlink.com 1.10,2013-03-27 15:39:00,
2013-03-27 11:54:00,53.8,35.0,30.35,West,281,4.0,9.0,49,0.00,,,0.00,weatherlink.com 1.10,2013-03-27 15:54:00,
2013-03-27 12:09:00,54.4,35.0,30.34,WNW,295,1.0,7.0,49,0.00,,,0.00,weatherlink.com 1.10,2013-03-27 16:09:00,
2013-03-27 12:24:00,55.6,35.0,30.34,WNW,299,1.0,5.0,47,0.00,,,0.00,weatherlink.com 1.10,2013-03-27 16:24:00,
2013-03-27 12:39:00,55.7,36.0,30.34,NW,310,3.0,5.0,48,0.00,,,0.00,weatherlink.com 1.10,2013-03-27 16:39:00,
2013-03-27 12:54:00,55.8,35.0,30.34,WSW,242,2.0,6.0,45,0.00,,,0.00,weatherlink.com 1.10,2013-03-27 16:54:00,
2013-03-27 13:09:00,56.0,36.0,30.33,North,6,2.0,7.0,48,0.00,,,0.00,weatherlink.com 1.10,2013-03-27 17:09:00,
2013-03-27 13:24:00,55.8,38.0,30.32,NNW,344,2.0,7.0,51,0.00,,,0.00,weatherlink.com 1.10,2013-03-27 17:24:00,
2013-03-27 13:39:00,55.8,39.0,30.32,NNW,329,2.0,8.0,53,0.00,,,0.00,weatherlink.com 1.10,2013-03-27 17:39:00,
2013-03-27 13:54:00,56.0,40.0,30.31,NNE,23,1.0,9.0,56,0.00,,,0.00,weatherlink.com 1.10,2013-03-27 17:54:00,
2013-03-27 14:09:00,56.0,39.0,30.31,NE,40,4.0,10.0,54,0.00,,,0.00,weatherlink.com 1.10,2013-03-27 18:09:00,
2013-03-27 14:24:00,55.7,39.0,30.31,NW,316,2.0,11.0,53,0.00,,,0.00,weatherlink.com 1.10,2013-03-27 18:24:00,
2013-03-27 14:39:00,56.0,40.0,30.30,ENE,59,6.0,12.0,56,0.00,,,0.00,weatherlink.com 1.10,2013-03-27 18:39:00,
2013-03-27 14:54:00,55.5,40.0,30.30,NNW,334,5.0,12.0,57,0.00,,,0.00,weatherlink.com 1.10,2013-03-27 18:54:00,
2013-03-27 15:09:00,56.8,41.0,30.29,NNW,332,5.0,9.0,57,0.00,,,0.00,weatherlink.com 1.10,2013-03-27 19:09:00,
2013-03-27 15:24:00,56.1,40.0,30.28,West,281,3.0,12.0,56,0.00,,,0.00,weatherlink.com 1.10,2013-03-27 19:24:00,
2013-03-27 15:39:00,56.2,41.0,30.27,NNE,30,6.0,9.0,57,0.00,,,0.00,weatherlink.com 1.10,2013-03-27 19:39:00,
2013-03-27 15:54:00,56.1,40.0,30.27,NNW,327,3.0,11.0,55,0.00,,,0.00,weatherlink.com 1.10,2013-03-27 19:54:00,
2013-03-27 16:09:00,56.4,41.0,30.27,NNE,13,3.0,10.0,57,0.00,,,0.00,weatherlink.com 1.10,2013-03-27 20:09:00,
2013-03-27 16:24:00,56.4,42.0,30.26,WNW,300,4.0,11.0,59,0.00,,,0.00,weatherlink.com 1.10,2013-03-27 20:24:00,
2013-03-27 16:39:00,56.1,41.0,30.26,NW,321,7.0,13.0,58,0.00,,,0.00,weatherlink.com 1.10,2013-03-27 20:39:00,
2013-03-27 16:54:00,55.6,41.0,30.26,NW,325,8.0,11.0,59,0.00,,,0.00,weatherlink.com 1.10,2013-03-27 20:54:00,
2013-03-27 17:09:00,55.2,42.0,30.26,North,9,5.0,12.0,61,0.00,,,0.00,weatherlink.com 1.10,2013-03-27 21:09:00,
2013-03-27 17:24:00,55.6,42.0,30.26,North,352,6.0,14.0,60,0.00,,,0.00,weatherlink.com 1.10,2013-03-27 21:24:00,
2013-03-27 17:39:00,55.6,42.0,30.27,ENE,58,7.0,13.0,60,0.00,,,0.00,weatherlink.com 1.10,2013-03-27 21:39:00,
2013-03-27 17:55:00,55.7,43.0,30.27,WNW,297,5.0,11.0,62,0.00,,,0.00,weatherlink.com 1.10,2013-03-27 21:55:00,
2013-03-27 18:10:00,55.5,42.0,30.27,East,92,6.0,11.0,62,0.00,,,0.00,weatherlink.com 1.10,2013-03-27 22:10:00,
2013-03-27 18:25:00,55.2,42.0,30.26,NNW,332,4.0,13.0,62,0.00,,,0.00,weatherlink.com 1.10,2013-03-27 22:25:00,
2013-03-27 18:40:00,54.8,43.0,30.27,NNW,334,3.0,9.0,64,0.00,,,0.00,weatherlink.com 1.10,2013-03-27 22:40:00,
2013-03-27 18:55:00,54.4,43.0,30.26,North,360,4.0,13.0,66,0.00,,,0.00,weatherlink.com 1.10,2013-03-27 22:55:00,
2013-03-27 19:10:00,54.5,43.0,30.25,NNE,23,2.0,6.0,66,0.00,,,0.00,weatherlink.com 1.10,2013-03-27 23:10:00,
2013-03-27 19:25:00,53.3,43.0,30.25,North,3,2.0,5.0,68,0.00,,,0.00,weatherlink.com 1.10,2013-03-27 23:25:00,
2013-03-27 19:40:00,52.2,43.0,30.25,NNW,333,3.0,5.0,70,0.00,,,0.00,weatherlink.com 1.10,2013-03-27 23:40:00,
2013-03-27 19:55:00,51.7,43.0,30.25,NNW,347,1.0,7.0,71,0.00,,,0.00,weatherlink.com 1.10,2013-03-27 23:55:00,
2013-03-27 20:10:00,51.5,43.0,30.26,NE,49,5.0,7.0,72,0.00,,,0.00,weatherlink.com 1.10,2013-03-28 00:10:00,
2013-03-27 20:25:00,51.6,43.0,30.27,NNE,25,1.0,6.0,73,0.00,,,0.00,weatherlink.com 1.10,2013-03-28 00:25:00,
2013-03-27 20:40:00,51.3,43.0,30.27,NNE,25,3.0,6.0,72,0.00,,,0.00,weatherlink.com 1.10,2013-03-28 00:40:00,
2013-03-27 20:55:00,51.0,43.0,30.27,NNE,25,1.0,4.0,73,0.00,,,0.00,weatherlink.com 1.10,2013-03-28 00:55:00,
2013-03-27 21:10:00,50.9,42.0,30.27,NW,314,1.0,6.0,72,0.00,,,0.00,weatherlink.com 1.10,2013-03-28 01:10:00,
2013-03-27 21:25:00,50.4,42.0,30.27,ENE,57,0.0,1.0,74,0.00,,,0.00,weatherlink.com 1.10,2013-03-28 01:25:00,
2013-03-27 21:40:00,50.1,42.0,30.28,NNW,328,0.0,2.0,75,0.00,,,0.00,weatherlink.com 1.10,2013-03-28 01:40:00,
2013-03-27 21:55:00,49.9,42.0,30.28,NW,319,1.0,4.0,75,0.00,,,0.00,weatherlink.com 1.10,2013-03-28 01:55:00,
2013-03-27 22:10:00,49.6,42.0,30.28,North,6,0.0,1.0,75,0.00,,,0.00,weatherlink.com 1.10,2013-03-28 02:10:00,
2013-03-27 22:26:00,48.9,42.0,30.28,North,9,0.0,1.0,77,0.00,,,0.00,weatherlink.com 1.10,2013-03-28 02:26:00,
2013-03-27 22:40:00,48.8,42.0,30.29,WNW,302,0.0,1.0,78,0.00,,,0.00,weatherlink.com 1.10,2013-03-28 02:40:00,
2013-03-27 22:55:00,48.7,42.0,30.29,NNW,332,0.0,2.0,79,0.00,,,0.00,weatherlink.com 1.10,2013-03-28 02:55:00,
2013-03-27 23:10:00,48.6,42.0,30.29,NW,307,0.0,1.0,79,0.00,,,0.00,weatherlink.com 1.10,2013-03-28 03:10:00,
2013-03-27 23:25:00,48.2,42.0,30.29,WSW,242,0.0,1.0,80,0.00,,,0.00,weatherlink.com 1.10,2013-03-28 03:25:00,
2013-03-27 23:40:00,47.8,42.0,30.28,WSW,242,0.0,1.0,81,0.00,,,0.00,weatherlink.com 1.10,2013-03-28 03:40:00,
2013-03-27 23:55:00,47.7,42.0,30.28,WSW,245,0.0,1.0,81,0.00,,,0.00,weatherlink.com 1.10,2013-03-28 03:55:00,